Bloomfield Township, MI (48301)

6:47 PM EST on February 06, 2016 (GMT -0500)
Bloomfield Village | | Change Station
CLOSE
Current Station
Personal Weather Station
Location: Bloomfield Hills, MI
Elevation: 797 ft
Nearby Weather Stations

Elev 797 ft 42.55 °N, 83.26 °W | Updated 1 minute ago

Partly Cloudy
Partly Cloudy
34.2 °F
Feels Like 32 °F
N
3.2
Wind Variable Wind from East

Today
High -- | Low -- °F
--% Chance of Precip.
Yesterday
High -- | Low -- °F
Precip. -- in
Pressure 30.18 in
Visibility 10.0 miles
Clouds Clear
Windchill 32 °F
Dew Point 25 °F
Humidity 68%
Rainfall 0.00 in
Snow Depth Not available.
7:42 AM 5:52 PM
Waning Crescent, 3% visible
METAR KVLL 062334Z AUTO 20005KT 10SM CLR 02/M04 A3018 RMK AO2 T00221042
Pressure 30.18 in
Visibility 10.0 miles
Clouds Clear
Windchill 32 °F
Dew Point 25 °F
Humidity 68%
Rainfall 0.00 in
Snow Depth Not available.
7:42 AM 5:52 PM
Waning Crescent, 3% visible
METAR KVLL 062334Z AUTO 20005KT 10SM CLR 02/M04 A3018 RMK AO2 T00221042

10-Day Weather Forecast

Almanac

Astronomy

Feb. 06, 2016 Rise Set
Actual Time
Civil Twilight
Nautical Twilight
Astronomical Twilight
Moon
Length of Visible Light
Length of Day
Tomorrow will be .
, % of the Moon is Illuminated

Today's Extremes

State Highs State Lows

Community

WunderPhotos

Upload Photos

1,891,098 photos uploaded!

WunderBlog® & News

Nearby

Air Quality

  Air Quality AQ Index Pollutant
Not available.

Snow Depth

Station Depth Elevation

Earthquake Activity

City Distance Mag. Time & Date
Minimum magnitude displayed is 2.5.

Coastal Water Temperatures

Place Temperature

Stations

Nearby Weather Stations

Station Location Temp. Windchill Dew Point Humidity Wind Precip. Elev Updated Type
                   

Watches & Warnings

There are currently no watches in effect.